Aviation Digital Data Service (ADDS)

Output produced by TAFs form (2043 UTC 28 June 2017)
found at http://aviationweather.gov/adds/tafs/
 
KRIL 281751Z 2818/2918 30009KT P6SM FEW250 
     FM282000 28014G23KT P6SM FEW250 
     FM290100 25016G24KT P6SM SCT250 
     FM290300 24006KT P6SM FEW200 
     FM291100 32005KT P6SM FEW250